createdAt,value
2022-12-09T00:04:53.553Z,15.43
2022-12-09T00:09:55.286Z,14.18
2022-12-09T00:14:56.844Z,14.80
2022-12-09T00:19:58.390Z,16.13
2022-12-09T00:24:59.964Z,15.02
2022-12-09T00:30:01.693Z,15.38
2022-12-09T00:35:04.806Z,15.40
2022-12-09T00:40:07.324Z,16.58
2022-12-09T00:45:09.444Z,16.33
2022-12-09T00:50:11.386Z,22.60
2022-12-09T00:55:13.347Z,19.20
2022-12-09T01:00:15.297Z,15.20
2022-12-09T01:05:16.969Z,15.90
2022-12-09T01:10:18.766Z,15.30
2022-12-09T01:15:20.336Z,15.30
2022-12-09T01:20:22.182Z,17.23
2022-12-09T01:25:23.792Z,16.55
2022-12-09T01:30:25.476Z,17.80
2022-12-09T01:35:28.802Z,17.48
2022-12-09T01:40:30.572Z,15.88
2022-12-09T01:45:39.148Z,16.95
2022-12-09T01:51:12.423Z,14.73
2022-12-09T01:56:27.229Z,15.27
2022-12-09T02:01:29.132Z,14.95
2022-12-09T02:06:31.112Z,16.17
2022-12-09T02:12:06.223Z,15.63
2022-12-09T02:17:13.959Z,14.95
2022-12-09T02:22:21.283Z,16.00
2022-12-09T02:27:36.667Z,16.52
2022-12-09T02:33:01.315Z,17.10
2022-12-09T02:38:08.758Z,17.13
2022-12-09T02:43:12.789Z,15.02
2022-12-09T02:48:18.672Z,16.48
2022-12-09T02:53:21.796Z,17.20
2022-12-09T02:58:23.630Z,15.60
2022-12-09T03:03:27.423Z,15.82
2022-12-09T03:08:53.229Z,16.48
2022-12-09T03:14:06.211Z,17.23
2022-12-09T03:19:36.367Z,16.95
2022-12-09T03:25:10.402Z,16.55
2022-12-09T03:30:13.554Z,16.63
2022-12-09T03:35:23.438Z,15.48
2022-12-09T03:45:29.489Z,16.13
2022-12-09T03:50:40.029Z,15.45
2022-12-09T03:56:16.702Z,15.38
2022-12-09T04:01:19.846Z,15.68
2022-12-09T04:06:22.546Z,15.20
2022-12-09T04:11:24.347Z,14.93
2022-12-09T04:16:26.425Z,14.93
2022-12-09T04:21:28.603Z,14.65
2022-12-09T04:26:30.426Z,15.07
2022-12-09T04:31:32.526Z,15.77
2022-12-09T04:36:34.136Z,15.60
2022-12-09T04:41:36.852Z,16.75
2022-12-09T04:46:38.668Z,17.15
2022-12-09T04:51:40.922Z,18.27
2022-12-09T04:56:42.652Z,18.15
2022-12-09T05:01:44.388Z,17.95
2022-12-09T05:06:46.402Z,17.63
2022-12-09T05:11:48.548Z,17.27
2022-12-09T05:16:50.259Z,17.25
2022-12-09T05:21:51.973Z,17.90
2022-12-09T05:26:53.734Z,17.48
2022-12-09T05:31:55.371Z,16.95
2022-12-09T05:36:57.282Z,17.13
2022-12-09T05:41:59.377Z,17.42
2022-12-09T05:47:01.469Z,17.55
2022-12-09T05:52:03.305Z,17.23
2022-12-09T05:57:05.296Z,17.88
2022-12-09T06:02:09.996Z,17.15
2022-12-09T06:07:12.261Z,19.30
2022-12-09T06:12:14.642Z,21.45
2022-12-09T06:17:16.472Z,23.23
2022-12-09T06:22:18.568Z,24.85
2022-12-09T06:27:20.205Z,23.33
2022-12-09T06:32:22.624Z,22.73
2022-12-09T06:37:24.705Z,23.05
2022-12-09T06:42:26.476Z,21.88
2022-12-09T06:47:28.982Z,21.23
2022-12-09T06:52:30.690Z,21.58
2022-12-09T06:57:32.879Z,21.23
2022-12-09T07:02:36.717Z,20.88
2022-12-09T07:07:38.811Z,21.83
2022-12-09T07:12:40.730Z,21.35
2022-12-09T07:17:42.532Z,21.02
2022-12-09T07:22:44.279Z,21.88
2022-12-09T07:27:45.975Z,23.17
2022-12-09T07:32:47.954Z,26.70
2022-12-09T07:37:49.830Z,27.67
2022-12-09T07:42:54.901Z,28.80
2022-12-09T07:48:00.781Z,29.77
2022-12-09T07:53:02.603Z,34.33
2022-12-09T07:58:04.431Z,32.78
2022-12-09T08:03:06.496Z,33.22
2022-12-09T08:08:08.505Z,35.30
2022-12-09T08:13:10.983Z,37.60
2022-12-09T08:18:12.835Z,33.90
2022-12-09T08:23:15.042Z,35.70
2022-12-09T08:28:17.140Z,33.78
2022-12-09T08:33:19.055Z,31.58
2022-12-09T08:38:21.022Z,30.00
2022-12-09T08:43:22.725Z,27.45
2022-12-09T08:48:24.661Z,28.80
2022-12-09T08:53:26.378Z,27.92
2022-12-09T08:58:28.129Z,27.77
2022-12-09T09:03:29.867Z,29.70
2022-12-09T09:08:32.849Z,30.05
2022-12-09T09:13:34.766Z,28.63
2022-12-09T09:18:37.015Z,28.65
2022-12-09T09:23:40.078Z,25.70
2022-12-09T09:28:41.972Z,25.05
2022-12-09T09:33:44.416Z,24.35
2022-12-09T09:38:47.164Z,21.27
2022-12-09T09:43:49.877Z,18.90
2022-12-09T09:48:53.033Z,20.27
2022-12-09T09:53:55.577Z,20.50
2022-12-09T09:59:20.504Z,23.02
2022-12-09T10:04:31.536Z,22.75
2022-12-09T10:09:53.157Z,22.70
2022-12-09T10:14:55.431Z,21.77
2022-12-09T10:20:11.935Z,22.42
2022-12-09T10:25:22.850Z,21.27
2022-12-09T10:30:26.296Z,22.25
2022-12-09T10:35:32.941Z,22.25
2022-12-09T10:40:38.259Z,21.83
2022-12-09T10:51:13.148Z,16.42
2022-12-09T10:56:28.407Z,15.10
2022-12-09T11:01:30.591Z,14.23
2022-12-09T11:06:41.723Z,12.07
2022-12-09T11:11:47.174Z,9.35
2022-12-09T11:16:54.591Z,8.48
2022-12-09T11:22:13.625Z,9.60
2022-12-09T11:27:26.196Z,10.73
2022-12-09T11:32:28.451Z,12.73
2022-12-09T11:37:31.959Z,11.25
2022-12-09T11:42:33.722Z,12.52
2022-12-09T11:48:21.632Z,12.80
2022-12-09T11:53:12.876Z,11.43
2022-12-09T11:58:20.825Z,13.65
2022-12-09T12:03:29.905Z,12.23
2022-12-09T12:08:46.505Z,14.13
2022-12-09T12:13:50.962Z,14.18
2022-12-09T12:19:07.351Z,14.35
2022-12-09T12:24:39.885Z,13.68
2022-12-09T12:30:05.564Z,14.02
2022-12-09T12:35:31.720Z,15.65
2022-12-09T12:40:42.485Z,16.10
2022-12-09T12:46:18.251Z,15.95
2022-12-09T12:51:22.828Z,16.13
2022-12-09T12:56:53.859Z,14.85
2022-12-09T13:02:13.747Z,16.45
2022-12-09T13:07:25.119Z,16.77
2022-12-09T13:12:53.797Z,15.90
2022-12-09T13:17:55.864Z,16.93
2022-12-09T13:23:03.259Z,15.55
2022-12-09T13:28:16.192Z,14.07
2022-12-09T13:33:17.686Z,15.68
2022-12-09T13:38:32.263Z,17.00
2022-12-09T13:43:33.821Z,16.13
2022-12-09T13:48:43.066Z,16.55
2022-12-09T13:53:49.720Z,16.75
2022-12-09T13:59:30.936Z,18.25
2022-12-09T14:04:37.408Z,17.50
2022-12-09T14:09:47.244Z,18.73
2022-12-09T14:14:52.498Z,17.02
2022-12-09T14:20:00.971Z,16.67
2022-12-09T14:25:34.867Z,14.00
2022-12-09T14:30:56.176Z,14.20
2022-12-09T14:36:04.916Z,13.30
2022-12-09T14:41:12.556Z,13.83
2022-12-09T14:46:25.572Z,14.90
2022-12-09T14:51:37.360Z,13.15
2022-12-09T14:56:39.202Z,16.10
2022-12-09T15:02:07.203Z,14.57
2022-12-09T15:07:25.105Z,15.80
2022-12-09T15:12:40.333Z,14.82
2022-12-09T15:17:45.469Z,16.15
2022-12-09T15:22:52.839Z,17.50
2022-12-09T15:28:13.365Z,16.65
2022-12-09T15:33:18.126Z,17.10
2022-12-09T15:38:20.463Z,19.08
2022-12-09T15:43:22.138Z,18.20
2022-12-09T15:48:30.211Z,19.45
2022-12-09T15:53:41.793Z,20.25
2022-12-09T15:58:52.704Z,20.65
2022-12-09T16:03:56.556Z,21.20
2022-12-09T16:08:59.275Z,21.88
2022-12-09T16:14:01.331Z,22.70
2022-12-09T16:19:02.980Z,23.02
2022-12-09T16:24:12.877Z,21.30
2022-12-09T16:29:27.719Z,22.77
2022-12-09T16:34:29.906Z,24.60
2022-12-09T16:39:33.402Z,26.65
2022-12-09T16:44:38.261Z,24.13
2022-12-09T16:49:41.527Z,24.88
2022-12-09T16:54:45.576Z,23.95
2022-12-09T16:59:47.615Z,24.02
2022-12-09T17:04:50.549Z,26.77
2022-12-09T17:09:52.302Z,27.00
2022-12-09T17:14:54.372Z,28.77
2022-12-09T17:19:55.997Z,27.75
2022-12-09T17:24:57.636Z,28.95
2022-12-09T17:29:59.199Z,27.88
2022-12-09T17:35:00.736Z,24.85
2022-12-09T17:40:06.568Z,27.08
2022-12-09T17:45:08.990Z,27.17
2022-12-09T17:50:11.054Z,27.67
2022-12-09T17:55:12.731Z,25.98
2022-12-09T18:00:15.150Z,26.60
2022-12-09T18:05:16.766Z,27.88
2022-12-09T18:10:18.510Z,27.63
2022-12-09T18:15:20.067Z,25.27
2022-12-09T18:20:21.816Z,29.35
2022-12-09T18:25:23.669Z,29.17
2022-12-09T18:30:25.205Z,30.77
2022-12-09T18:35:27.228Z,30.23
2022-12-09T18:40:29.002Z,27.48
2022-12-09T18:45:30.579Z,31.08
2022-12-09T18:50:37.131Z,32.00
2022-12-09T18:55:42.610Z,32.08
2022-12-09T19:00:44.268Z,28.85
2022-12-09T19:05:45.797Z,27.55
2022-12-09T19:10:54.408Z,30.35
2022-12-09T19:15:55.970Z,26.03
2022-12-09T19:21:07.946Z,29.38
2022-12-09T19:26:24.983Z,29.40
2022-12-09T19:31:36.034Z,28.20
2022-12-09T19:36:37.887Z,28.13
2022-12-09T19:41:40.493Z,29.65
2022-12-09T19:46:42.168Z,27.92
2022-12-09T19:51:44.380Z,29.58
2022-12-09T19:56:47.681Z,28.70
2022-12-09T20:01:49.762Z,30.55
2022-12-09T20:06:51.433Z,44.08
2022-12-09T20:11:53.086Z,37.50
2022-12-09T20:16:54.741Z,38.88
2022-12-09T20:21:56.333Z,32.78
2022-12-09T20:26:58.224Z,33.65
2022-12-09T20:31:59.809Z,31.30
2022-12-09T20:37:01.414Z,35.80
2022-12-09T20:42:02.979Z,32.63
2022-12-09T20:47:04.562Z,34.00
2022-12-09T20:52:06.535Z,34.40
2022-12-09T20:57:08.110Z,34.20
2022-12-09T21:02:13.942Z,35.45
2022-12-09T21:07:16.527Z,34.78
2022-12-09T21:12:18.091Z,29.00
2022-12-09T21:17:19.654Z,36.13
2022-12-09T21:22:21.214Z,37.70
2022-12-09T21:27:22.836Z,36.95
2022-12-09T21:32:24.419Z,36.42
2022-12-09T21:37:25.980Z,36.38
2022-12-09T21:42:27.544Z,34.95
2022-12-09T21:47:29.076Z,36.15
2022-12-09T21:52:30.781Z,35.10
2022-12-09T21:57:34.136Z,35.42
2022-12-09T22:02:35.812Z,35.45
2022-12-09T22:07:37.524Z,37.35
2022-12-09T22:12:39.084Z,37.38
2022-12-09T22:17:40.712Z,35.70
2022-12-09T22:22:42.255Z,36.08
2022-12-09T22:27:43.827Z,36.10
2022-12-09T22:32:50.461Z,35.97
2022-12-09T22:37:52.404Z,34.42
2022-12-09T22:42:53.944Z,34.10
2022-12-09T22:47:55.528Z,34.33
2022-12-09T22:52:57.203Z,33.95
2022-12-09T22:57:58.748Z,35.60
2022-12-09T23:03:00.397Z,34.60
2022-12-09T23:08:02.136Z,35.95
2022-12-09T23:13:04.306Z,37.30
2022-12-09T23:18:06.261Z,36.42
2022-12-09T23:23:08.283Z,36.13
2022-12-09T23:28:11.613Z,36.60
2022-12-09T23:33:13.183Z,35.30
2022-12-09T23:38:14.732Z,34.83
2022-12-09T23:43:16.281Z,33.80
2022-12-09T23:48:17.841Z,33.85
2022-12-09T23:53:19.565Z,32.75
2022-12-09T23:58:21.171Z,35.78
